Time;durP1;ratioP1;P1;durP2;ratioP2;P2;SDS_P1;SDS_P2;PMS_P1;PMS_P2;Temp;Humidity;BMP_temperature;BMP_pressure;BME280_temperature;BME280_humidity;BME280_pressure;Samples;Min_cycle;Max_cycle;Signal;HPM_P1;HPM_P2
2022/03/25 00:01:33;;;;;;;;;;;;;;;;;;4982414;28;1577;-64
2022/03/25 00:03:58;;;;;;;;;;;;;;;;;;4982071;28;1652;-64
2022/03/25 00:06:26;;;;;;;;;;;;;;;;;;4982293;28;1571;-65
2022/03/25 00:08:51;;;;;;;;;;;;;;;;;;4982866;28;1955;-64
2022/03/25 00:11:16;;;;;;;;;;;;;;;;;;4982728;28;1284;-64
2022/03/25 00:13:42;;;;;;;;;;;;;;;;;;4982777;28;1935;-64
2022/03/25 00:16:07;;;;;;;;;;;;;;;;;;4982351;28;1271;-64
2022/03/25 00:18:33;;;;;;;;;;;;;;;;;;4982533;28;1209;-64
2022/03/25 00:20:58;;;;;;;;;;;;;;;;;;4981576;28;1985;-64
2022/03/25 00:23:24;;;;;;;;;;;;;;;;;;4981735;28;1273;-64
2022/03/25 00:25:49;;;;;;;;;;;;;;;;;;4982148;28;1335;-63
2022/03/25 00:28:14;;;;;;;;;;;;;;;;;;4982040;28;1906;-64
2022/03/25 00:30:40;;;;;;;;;;;;;;;;;;4982534;28;1261;-64
2022/03/25 00:33:05;;;;;;;;;;;;;;;;;;4982121;28;1117;-64
2022/03/25 00:35:31;;;;;;;;;;;;;;;;;;4980477;28;1559;-65
2022/03/25 00:37:56;;;;;;;;;;;;;;;;;;4982368;28;1406;-65
2022/03/25 00:40:21;;;;;;;;;;;;;;;;;;4981378;28;1536;-65
2022/03/25 00:42:47;;;;;;;;;;;;;;;;;;4982034;28;1142;-64
2022/03/25 00:45:12;;;;;;;;;;;;;;;;;;4981887;28;1272;-64
2022/03/25 00:47:38;;;;;;;;;;;;;;;;;;4981985;28;1910;-65
2022/03/25 00:50:03;;;;;;;;;;;;;;;;;;4981186;28;1497;-65
2022/03/25 00:52:29;;;;;;;;;;;;;;;;;;4981869;28;1173;-65
2022/03/25 00:54:54;;;;;;;;;;;;;;;;;;4981475;28;1272;-65
2022/03/25 00:57:19;;;;;;;;;;;;;;;;;;4982011;28;1276;-65
2022/03/25 00:59:44;;;;;;;;;;;;;;;;;;4981986;28;1193;-65
2022/03/25 01:02:10;;;;;;;;;;;;;;;;;;4981639;28;1221;-64
2022/03/25 01:04:35;;;;;;;;;;;;;;;;;;4980718;28;1553;-64
2022/03/25 01:07:01;;;;;;;;;;;;;;;;;;4981599;28;1346;-64
2022/03/25 01:09:26;;;;;;;;;;;;;;;;;;4980753;28;1886;-64
2022/03/25 01:11:53;;;;;;;;;;;;;;;;;;4981636;28;1296;-64
2022/03/25 01:14:18;;;;;;;;;;;;;;;;;;4981920;28;1272;-64
2022/03/25 01:16:43;;;;;;;;;;;;;;;;;;4981241;28;1335;-65
2022/03/25 01:19:10;;;;;;;;;;;;;;;;;;4980931;28;1592;-65
2022/03/25 01:21:35;;;;;;;;;;;;;;;;;;4981389;28;1249;-64
2022/03/25 01:24:01;;;;;;;;;;;;;;;;;;4981289;28;1493;-65
2022/03/25 01:26:26;;;;;;;;;;;;;;;;;;4981228;28;1320;-65
2022/03/25 01:28:52;;;;;;;;;;;;;;;;;;4981073;28;1950;-65
2022/03/25 01:31:18;;;;;;;;;;;;;;;;;;4981275;28;1413;-65
2022/03/25 01:33:43;;;;;;;;;;;;;;;;;;4978371;28;1584;-64
2022/03/25 01:36:09;;;;;;;;;;;;;;;;;;4980189;28;1595;-64
2022/03/25 01:38:34;;;;;;;;;;;;;;;;;;4981295;28;1273;-64
2022/03/25 01:40:59;;;;;;;;;;;;;;;;;;4981177;28;1174;-65
2022/03/25 01:43:24;;;;;;;;;;;;;;;;;;4981329;28;1272;-65
2022/03/25 01:45:50;;;;;;;;;;;;;;;;;;4979337;28;1224;-65
2022/03/25 01:48:16;;;;;;;;;;;;;;;;;;4980177;28;1993;-64
2022/03/25 01:50:43;;;;;;;;;;;;;;;;;;4980505;28;1280;-64
2022/03/25 01:53:12;;;;;;;;;;;;;;;;;;4980623;28;1443;-64
2022/03/25 01:55:38;;;;;;;;;;;;;;;;;;4980080;28;1315;-64
2022/03/25 01:58:06;;;;;;;;;;;;;;;;;;4980616;28;1269;-65
2022/03/25 02:00:31;;;;;;;;;;;;;;;;;;4980735;28;1245;-65
2022/03/25 02:02:56;;;;;;;;;;;;;;;;;;4979963;28;1600;-65
2022/03/25 02:05:22;;;;;;;;;;;;;;;;;;4979729;28;1370;-65
2022/03/25 02:07:47;;;;;;;;;;;;;;;;;;4980709;28;1966;-65
2022/03/25 02:10:13;;;;;;;;;;;;;;;;;;4980945;28;1249;-65
2022/03/25 02:12:39;;;;;;;;;;;;;;;;;;4980688;28;1339;-65
2022/03/25 02:15:05;;;;;;;;;;;;;;;;;;4980453;28;1301;-64
2022/03/25 02:17:30;;;;;;;;;;;;;;;;;;4979701;28;1545;-65
2022/03/25 02:19:55;;;;;;;;;;;;;;;;;;4980908;28;1312;-65
2022/03/25 02:22:20;;;;;;;;;;;;;;;;;;4980848;28;1240;-65
2022/03/25 02:24:46;;;;;;;;;;;;;;;;;;4980437;28;1305;-65
2022/03/25 02:27:11;;;;;;;;;;;;;;;;;;4980486;28;1890;-64
2022/03/25 02:29:37;;;;;;;;;;;;;;;;;;4979545;28;1216;-64
2022/03/25 02:32:02;;;;;;;;;;;;;;;;;;4980286;28;1640;-65
2022/03/25 02:34:27;;;;;;;;;;;;;;;;;;4980334;28;1241;-65
2022/03/25 02:36:52;;;;;;;;;;;;;;;;;;4980216;28;1545;-65
2022/03/25 02:39:18;;;;;;;;;;;;;;;;;;4980753;28;1283;-64
2022/03/25 02:41:43;;;;;;;;;;;;;;;;;;4979350;28;1501;-65
2022/03/25 02:44:09;;;;;;;;;;;;;;;;;;4980549;28;1178;-64
2022/03/25 02:46:34;;;;;;;;;;;;;;;;;;4981902;28;1549;-64
2022/03/25 02:48:59;;;;;;;;;;;;;;;;;;4983971;28;1969;-64
2022/03/25 02:51:24;;;;;;;;;;;;;;;;;;4983741;28;1216;-64
2022/03/25 02:53:50;;;;;;;;;;;;;;;;;;4983814;28;1241;-64
2022/03/25 02:56:15;;;;;;;;;;;;;;;;;;4983285;28;1280;-65
2022/03/25 02:58:40;;;;;;;;;;;;;;;;;;4982880;28;1529;-65
2022/03/25 03:01:08;;;;;;;;;;;;;;;;;;4983755;28;1236;-64
2022/03/25 03:03:34;;;;;;;;;;;;;;;;;;4983581;28;1288;-65
2022/03/25 03:05:59;;;;;;;;;;;;;;;;;;4982940;28;1332;-65
2022/03/25 03:08:25;;;;;;;;;;;;;;;;;;4982990;28;1906;-64
2022/03/25 03:10:50;;;;;;;;;;;;;;;;;;4983514;28;1486;-65
2022/03/25 03:13:15;;;;;;;;;;;;;;;;;;4981822;28;1509;-64
2022/03/25 03:15:40;;;;;;;;;;;;;;;;;;4982539;28;1279;-64
2022/03/25 03:18:06;;;;;;;;;;;;;;;;;;4982445;28;1240;-64
2022/03/25 03:20:31;;;;;;;;;;;;;;;;;;4983252;28;1241;-64
2022/03/25 03:22:57;;;;;;;;;;;;;;;;;;4983633;28;1416;-65
2022/03/25 03:25:22;;;;;;;;;;;;;;;;;;4982720;28;1859;-64
2022/03/25 03:27:48;;;;;;;;;;;;;;;;;;4982659;28;1894;-64
2022/03/25 03:30:14;;;;;;;;;;;;;;;;;;4981586;28;1536;-65
2022/03/25 03:32:39;;;;;;;;;;;;;;;;;;4983442;28;1249;-65
2022/03/25 03:35:05;;;;;;;;;;;;;;;;;;4982348;28;1268;-65
2022/03/25 03:37:30;;;;;;;;;;;;;;;;;;4983220;28;1356;-64
2022/03/25 03:39:55;;;;;;;;;;;;;;;;;;4982032;28;1466;-64
2022/03/25 03:42:21;;;;;;;;;;;;;;;;;;4982649;28;1347;-65
2022/03/25 03:44:46;;;;;;;;;;;;;;;;;;4982105;28;1513;-65
2022/03/25 03:47:12;;;;;;;;;;;;;;;;;;4982508;28;1969;-64
2022/03/25 03:49:38;;;;;;;;;;;;;;;;;;4982813;28;1276;-65
2022/03/25 03:52:04;;;;;;;;;;;;;;;;;;4982988;28;1269;-65
2022/03/25 03:54:29;;;;;;;;;;;;;;;;;;4981954;28;1584;-65
2022/03/25 03:56:55;;;;;;;;;;;;;;;;;;4981470;28;1326;-65
2022/03/25 03:59:20;;;;;;;;;;;;;;;;;;4982730;28;1273;-65
2022/03/25 04:01:45;;;;;;;;;;;;;;;;;;4982808;28;1328;-65
2022/03/25 04:04:11;;;;;;;;;;;;;;;;;;4982858;28;1383;-65
2022/03/25 04:06:36;;;;;;;;;;;;;;;;;;4982016;28;1358;-65
2022/03/25 04:09:01;;;;;;;;;;;;;;;;;;4980934;28;1954;-65
2022/03/25 04:11:26;;;;;;;;;;;;;;;;;;4982637;28;1303;-65
2022/03/25 04:13:53;;;;;;;;;;;;;;;;;;4982503;28;1116;-65
2022/03/25 04:16:19;;;;;;;;;;;;;;;;;;4982408;28;1264;-65
2022/03/25 04:18:44;;;;;;;;;;;;;;;;;;4982359;28;1193;-64
2022/03/25 04:21:09;;;;;;;;;;;;;;;;;;4982637;28;1248;-64
2022/03/25 04:23:34;;;;;;;;;;;;;;;;;;4981046;28;1549;-64
2022/03/25 04:26:00;;;;;;;;;;;;;;;;;;4981159;28;1545;-64
2022/03/25 04:28:25;;;;;;;;;;;;;;;;;;4982111;28;1899;-65
2022/03/25 04:30:50;;;;;;;;;;;;;;;;;;4982424;28;1248;-64
2022/03/25 04:33:15;;;;;;;;;;;;;;;;;;4982155;28;1273;-64
2022/03/25 04:35:40;;;;;;;;;;;;;;;;;;4981460;28;1343;-64
2022/03/25 04:38:06;;;;;;;;;;;;;;;;;;4981388;28;1577;-64
2022/03/25 04:40:32;;;;;;;;;;;;;;;;;;4982243;28;1292;-64
2022/03/25 04:42:58;;;;;;;;;;;;;;;;;;4982043;28;1176;-64
2022/03/25 04:45:25;;;;;;;;;;;;;;;;;;4981962;28;1339;-64
2022/03/25 04:47:51;;;;;;;;;;;;;;;;;;4981925;28;1959;-64
2022/03/25 04:50:16;;;;;;;;;;;;;;;;;;4981985;28;1414;-64
2022/03/25 04:52:42;;;;;;;;;;;;;;;;;;4981408;28;1608;-65
2022/03/25 04:55:07;;;;;;;;;;;;;;;;;;4981515;28;1358;-64
2022/03/25 04:57:32;;;;;;;;;;;;;;;;;;4981545;28;1347;-64
2022/03/25 04:59:57;;;;;;;;;;;;;;;;;;4981930;28;1213;-65
2022/03/25 05:02:23;;;;;;;;;;;;;;;;;;4981557;28;1347;-64
2022/03/25 05:04:48;;;;;;;;;;;;;;;;;;4981648;28;1248;-64
2022/03/25 05:07:17;;;;;;;;;;;;;;;;;;4981073;28;1607;-64
2022/03/25 05:09:43;;;;;;;;;;;;;;;;;;4981460;28;1293;-65
2022/03/25 05:12:08;;;;;;;;;;;;;;;;;;4981073;28;1187;-65
2022/03/25 05:14:34;;;;;;;;;;;;;;;;;;4980768;28;1497;-64
2022/03/25 05:16:59;;;;;;;;;;;;;;;;;;4981137;28;1365;-64
2022/03/25 05:19:24;;;;;;;;;;;;;;;;;;4981588;28;1245;-65
2022/03/25 05:21:49;;;;;;;;;;;;;;;;;;4981659;28;1304;-65
2022/03/25 05:24:15;;;;;;;;;;;;;;;;;;4980673;28;1600;-64
2022/03/25 05:26:40;;;;;;;;;;;;;;;;;;4980829;28;1594;-64
2022/03/25 05:29:06;;;;;;;;;;;;;;;;;;4980371;28;1963;-64
2022/03/25 05:31:31;;;;;;;;;;;;;;;;;;4981173;28;1351;-64
2022/03/25 05:33:56;;;;;;;;;;;;;;;;;;4981641;28;1352;-64
2022/03/25 05:36:21;;;;;;;;;;;;;;;;;;4980732;28;1326;-64
2022/03/25 05:38:47;;;;;;;;;;;;;;;;;;4981674;28;1407;-64
2022/03/25 05:41:12;;;;;;;;;;;;;;;;;;4980694;28;1367;-64
2022/03/25 05:43:37;;;;;;;;;;;;;;;;;;4981085;28;1362;-65
2022/03/25 05:46:03;;;;;;;;;;;;;;;;;;4980801;28;1296;-65
2022/03/25 05:48:29;;;;;;;;;;;;;;;;;;4981048;28;1914;-65
2022/03/25 05:50:54;;;;;;;;;;;;;;;;;;4981322;28;1296;-66
2022/03/25 05:53:19;;;;;;;;;;;;;;;;;;4981144;28;1288;-65
2022/03/25 05:55:44;;;;;;;;;;;;;;;;;;4980849;28;1350;-65
2022/03/25 05:58:10;;;;;;;;;;;;;;;;;;4979971;28;1612;-65
2022/03/25 06:00:36;;;;;;;;;;;;;;;;;;4982453;28;2155;-65
2022/03/25 06:03:01;;;;;;;;;;;;;;;;;;4982284;28;1914;-65
2022/03/25 06:05:27;;;;;;;;;;;;;;;;;;4980146;28;1359;-66
2022/03/25 06:07:52;;;;;;;;;;;;;;;;;;4980977;28;1969;-65
2022/03/25 06:10:17;;;;;;;;;;;;;;;;;;4980313;28;1473;-66
2022/03/25 06:12:43;;;;;;;;;;;;;;;;;;4980310;28;1291;-66
2022/03/25 06:15:08;;;;;;;;;;;;;;;;;;4979128;28;1362;-66
2022/03/25 06:17:40;;;;;;;;;;;;;;;;;;4980357;28;1253;-66
2022/03/25 06:20:07;;;;;;;;;;;;;;;;;;4981140;28;1774;-65
2022/03/25 06:22:33;;;;;;;;;;;;;;;;;;4983331;28;1544;-65
2022/03/25 06:24:59;;;;;;;;;;;;;;;;;;4983180;28;1398;-65
2022/03/25 06:27:24;;;;;;;;;;;;;;;;;;4983850;28;1961;-65
2022/03/25 06:29:49;;;;;;;;;;;;;;;;;;4984301;28;1304;-65
2022/03/25 06:32:14;;;;;;;;;;;;;;;;;;4984270;28;1257;-65
2022/03/25 06:34:39;;;;;;;;;;;;;;;;;;4984066;28;1260;-65
2022/03/25 06:37:05;;;;;;;;;;;;;;;;;;4983448;28;1312;-65
2022/03/25 06:39:31;;;;;;;;;;;;;;;;;;4983434;28;1996;-64
2022/03/25 06:41:56;;;;;;;;;;;;;;;;;;4983723;28;1331;-65
2022/03/25 06:44:21;;;;;;;;;;;;;;;;;;4983954;28;1241;-65
2022/03/25 06:46:46;;;;;;;;;;;;;;;;;;4983263;28;1342;-65
2022/03/25 06:49:12;;;;;;;;;;;;;;;;;;4982740;28;1894;-65
2022/03/25 06:51:37;;;;;;;;;;;;;;;;;;4982519;28;1198;-65
2022/03/25 06:54:03;;;;;;;;;;;;;;;;;;4982891;28;1533;-65
2022/03/25 06:56:28;;;;;;;;;;;;;;;;;;4983426;28;1302;-65
2022/03/25 06:58:53;;;;;;;;;;;;;;;;;;4983695;28;1264;-65
2022/03/25 07:01:19;;;;;;;;;;;;;;;;;;4983701;28;1197;-65
2022/03/25 07:03:44;;;;;;;;;;;;;;;;;;4983545;28;1367;-65
2022/03/25 07:06:09;;;;;;;;;;;;;;;;;;4983451;28;1315;-65
2022/03/25 07:08:35;;;;;;;;;;;;;;;;;;4982627;28;1894;-65
2022/03/25 07:11:01;;;;;;;;;;;;;;;;;;4983535;28;1319;-65
2022/03/25 07:13:27;;;;;;;;;;;;;;;;;;4983745;28;1344;-65
2022/03/25 07:15:52;;;;;;;;;;;;;;;;;;4983165;28;1390;-65
2022/03/25 07:18:17;;;;;;;;;;;;;;;;;;4982107;28;1542;-65
2022/03/25 07:20:43;;;;;;;;;;;;;;;;;;4983113;28;1315;-65
2022/03/25 07:23:08;;;;;;;;;;;;;;;;;;4983445;28;1225;-65
2022/03/25 07:25:33;;;;;;;;;;;;;;;;;;4982949;28;1268;-65
2022/03/25 07:27:58;;;;;;;;;;;;;;;;;;4982532;28;1891;-65
2022/03/25 07:30:23;;;;;;;;;;;;;;;;;;4982889;28;1189;-65
2022/03/25 07:32:49;;;;;;;;;;;;;;;;;;4983059;28;1382;-65
2022/03/25 07:35:14;;;;;;;;;;;;;;;;;;4982788;28;1323;-65
2022/03/25 07:37:40;;;;;;;;;;;;;;;;;;4982615;28;1470;-64
2022/03/25 07:40:09;;;;;;;;;;;;;;;;;;4982919;28;1364;-64
2022/03/25 07:42:34;;;;;;;;;;;;;;;;;;4983368;28;1304;-66
2022/03/25 07:45:01;;;;;;;;;;;;;;;;;;4982623;28;1561;-66
2022/03/25 07:47:26;;;;;;;;;;;;;;;;;;4982693;28;1923;-66
2022/03/25 07:49:52;;;;;;;;;;;;;;;;;;4983131;28;1571;-66
2022/03/25 07:52:17;;;;;;;;;;;;;;;;;;4984051;28;1277;-65
2022/03/25 07:54:42;;;;;;;;;;;;;;;;;;4983335;28;1380;-66
2022/03/25 07:57:07;;;;;;;;;;;;;;;;;;4983225;28;1330;-66
2022/03/25 07:59:33;;;;;;;;;;;;;;;;;;4982883;28;1525;-65
2022/03/25 08:01:58;;;;;;;;;;;;;;;;;;4983295;28;1307;-66
2022/03/25 08:04:24;;;;;;;;;;;;;;;;;;4983816;28;1260;-66
2022/03/25 08:06:49;;;;;;;;;;;;;;;;;;4982105;28;1300;-66
2022/03/25 08:09:15;;;;;;;;;;;;;;;;;;4983582;28;1898;-66
2022/03/25 08:11:40;;;;;;;;;;;;;;;;;;4981854;28;1704;-66
2022/03/25 08:14:06;;;;;;;;;;;;;;;;;;4982334;28;1454;-65
2022/03/25 08:16:31;;;;;;;;;;;;;;;;;;4981842;28;1350;-65
2022/03/25 08:18:57;;;;;;;;;;;;;;;;;;4981351;28;1431;-66
2022/03/25 08:21:22;;;;;;;;;;;;;;;;;;4980706;28;1202;-66
2022/03/25 08:29:17;;;;;;;;;;;;;;;;;;4982805;28;1971;-65
2022/03/25 08:31:42;;;;;;;;;;;;;;;;;;4980876;28;1280;-65
2022/03/25 08:34:13;;;;;;;;;;;;;;;;;;4981390;28;1522;-66
2022/03/25 08:36:38;;;;;;;;;;;;;;;;;;4982061;28;1244;-66
2022/03/25 08:39:03;;;;;;;;;;;;;;;;;;4981603;28;1268;-67
2022/03/25 08:41:29;;;;;;;;;;;;;;;;;;4982244;28;1253;-66
2022/03/25 08:43:54;;;;;;;;;;;;;;;;;;4981385;28;1292;-67
2022/03/25 08:46:20;;;;;;;;;;;;;;;;;;4980293;28;1922;-67
2022/03/25 08:48:45;;;;;;;;;;;;;;;;;;4981987;28;1923;-67
2022/03/25 08:51:10;;;;;;;;;;;;;;;;;;4981865;28;1248;-67
2022/03/25 08:53:36;;;;;;;;;;;;;;;;;;4981743;28;1374;-67
2022/03/25 08:56:01;;;;;;;;;;;;;;;;;;4980292;28;1604;-67
2022/03/25 08:58:26;;;;;;;;;;;;;;;;;;4981812;28;1336;-69
2022/03/25 09:00:51;;;;;;;;;;;;;;;;;;4980756;28;1519;-69
2022/03/25 09:03:17;;;;;;;;;;;;;;;;;;4983109;28;1513;-69
2022/03/25 09:05:42;;;;;;;;;;;;;;;;;;4983311;28;1282;-68
2022/03/25 09:08:07;;;;;;;;;;;;;;;;;;4984534;28;1977;-69
2022/03/25 09:10:32;;;;;;;;;;;;;;;;;;4984367;28;1276;-67
2022/03/25 09:12:58;;;;;;;;;;;;;;;;;;4983506;28;1265;-68
2022/03/25 09:15:24;;;;;;;;;;;;;;;;;;4985210;28;1327;-69
2022/03/25 09:17:49;;;;;;;;;;;;;;;;;;4985038;28;1157;-68
2022/03/25 09:20:15;;;;;;;;;;;;;;;;;;4983195;28;1545;-69
2022/03/25 09:22:41;;;;;;;;;;;;;;;;;;4984861;28;1219;-68
2022/03/25 09:25:09;;;;;;;;;;;;;;;;;;4984444;28;1365;-68
2022/03/25 09:27:35;;;;;;;;;;;;;;;;;;4983386;28;1910;-68
2022/03/25 09:30:01;;;;;;;;;;;;;;;;;;4982095;28;1241;-68
2022/03/25 09:32:26;;;;;;;;;;;;;;;;;;4981139;28;1584;-68
2022/03/25 09:35:10;;;;;;;;;;;;;;;;;;4980645;28;1268;-68
2022/03/25 09:37:36;;;;;;;;;;;;;;;;;;4980101;28;1664;-68
2022/03/25 09:40:03;;;;;;;;;;;;;;;;;;4982047;28;1612;-68
2022/03/25 09:42:29;;;;;;;;;;;;;;;;;;4982355;28;1326;-67
2022/03/25 09:44:55;;;;;;;;;;;;;;;;;;4983429;28;1193;-68
2022/03/25 09:47:20;;;;;;;;;;;;;;;;;;4983333;28;1362;-68
2022/03/25 09:49:46;;;;;;;;;;;;;;;;;;4981310;28;1957;-68
2022/03/25 09:52:11;;;;;;;;;;;;;;;;;;4982676;28;1288;-68
2022/03/25 09:54:36;;;;;;;;;;;;;;;;;;4981808;28;1470;-69
2022/03/25 09:57:03;;;;;;;;;;;;;;;;;;4982698;28;1339;-68
2022/03/25 09:59:28;;;;;;;;;;;;;;;;;;4980118;28;1198;-68
2022/03/25 10:01:54;;;;;;;;;;;;;;;;;;4980380;28;1221;-68
2022/03/25 10:04:37;;;;;;;;;;;;;;;;;;4981422;28;1245;-71
2022/03/25 10:07:16;;;;;;;;;;;;;;;;;;4980627;28;1331;-68
2022/03/25 10:09:41;;;;;;;;;;;;;;;;;;4979175;28;1894;-68
2022/03/25 10:12:23;;;;;;;;;;;;;;;;;;4980412;28;1286;-68
2022/03/25 10:14:49;;;;;;;;;;;;;;;;;;4981264;28;1159;-68
2022/03/25 10:17:15;;;;;;;;;;;;;;;;;;4980898;28;1236;-69
2022/03/25 10:19:52;;;;;;;;;;;;;;;;;;4980770;28;1304;-67
2022/03/25 10:22:18;;;;;;;;;;;;;;;;;;4980680;28;1648;-68
2022/03/25 10:24:48;;;;;;;;;;;;;;;;;;4980673;28;1148;-70
2022/03/25 10:27:23;;;;;;;;;;;;;;;;;;4980907;28;1373;-69
2022/03/25 10:29:50;;;;;;;;;;;;;;;;;;4980005;28;1911;-69
2022/03/25 10:32:18;;;;;;;;;;;;;;;;;;4980484;28;1331;-68
2022/03/25 10:34:43;;;;;;;;;;;;;;;;;;4980985;28;1241;-68
2022/03/25 10:37:11;;;;;;;;;;;;;;;;;;4979345;28;1530;-67
2022/03/25 10:39:36;;;;;;;;;;;;;;;;;;4980454;28;1342;-69
2022/03/25 10:42:06;;;;;;;;;;;;;;;;;;4978485;28;1545;-69
2022/03/25 10:44:41;;;;;;;;;;;;;;;;;;4980029;28;1230;-68
2022/03/25 10:47:16;;;;;;;;;;;;;;;;;;4980116;28;1403;-68
2022/03/25 10:49:46;;;;;;;;;;;;;;;;;;4978545;28;2003;-69
2022/03/25 10:52:23;;;;;;;;;;;;;;;;;;4979889;28;1683;-68
2022/03/25 10:54:49;;;;;;;;;;;;;;;;;;4980673;28;1118;-68
2022/03/25 10:57:15;;;;;;;;;;;;;;;;;;4979091;28;1314;-70
2022/03/25 10:59:40;;;;;;;;;;;;;;;;;;4980841;28;1296;-67
2022/03/25 11:02:06;;;;;;;;;;;;;;;;;;4980311;28;1230;-70
2022/03/25 11:04:32;;;;;;;;;;;;;;;;;;4978278;28;1561;-70
2022/03/25 11:06:58;;;;;;;;;;;;;;;;;;4981585;28;1260;-68
2022/03/25 11:09:24;;;;;;;;;;;;;;;;;;4981587;28;1966;-69
2022/03/25 11:11:50;;;;;;;;;;;;;;;;;;4982519;28;1489;-69
2022/03/25 11:14:16;;;;;;;;;;;;;;;;;;4983257;28;1204;-70
2022/03/25 11:16:43;;;;;;;;;;;;;;;;;;4981461;28;1635;-70
2022/03/25 11:19:11;;;;;;;;;;;;;;;;;;4983409;28;1282;-70
2022/03/25 11:21:44;;;;;;;;;;;;;;;;;;4984113;28;1375;-69
2022/03/25 11:24:13;;;;;;;;;;;;;;;;;;4982917;28;1214;-69
2022/03/25 11:26:40;;;;;;;;;;;;;;;;;;4983278;28;1354;-71
2022/03/25 11:29:06;;;;;;;;;;;;;;;;;;4983594;28;1956;-70
2022/03/25 11:31:52;;;;;;;;;;;;;;;;;;4982720;28;1663;-70
2022/03/25 11:34:22;;;;;;;;;;;;;;;;;;4983366;28;1508;-71
2022/03/25 11:37:07;;;;;;;;;;;;;;;;;;4982259;28;1387;-71
2022/03/25 11:39:35;;;;;;;;;;;;;;;;;;4982062;28;1619;-71
2022/03/25 11:42:02;;;;;;;;;;;;;;;;;;4980733;28;1338;-69
2022/03/25 11:44:29;;;;;;;;;;;;;;;;;;4983392;28;1393;-70
2022/03/25 11:47:00;;;;;;;;;;;;;;;;;;4982578;28;1362;-72
2022/03/25 11:49:26;;;;;;;;;;;;;;;;;;4981605;28;1898;-70
2022/03/25 11:51:52;;;;;;;;;;;;;;;;;;4982918;28;1247;-71
2022/03/25 11:54:36;;;;;;;;;;;;;;;;;;4982747;28;1066;-70
2022/03/25 11:57:02;;;;;;;;;;;;;;;;;;4979586;28;1355;-71
2022/03/25 11:59:45;;;;;;;;;;;;;;;;;;4983056;28;1194;-71
2022/03/25 12:02:23;;;;;;;;;;;;;;;;;;4982153;28;1627;-71
2022/03/25 12:04:49;;;;;;;;;;;;;;;;;;4982948;28;1103;-70
2022/03/25 12:07:16;;;;;;;;;;;;;;;;;;4982737;28;1410;-71
2022/03/25 12:09:43;;;;;;;;;;;;;;;;;;4981091;28;1890;-72
2022/03/25 12:12:09;;;;;;;;;;;;;;;;;;4981780;28;1541;-70
2022/03/25 12:14:36;;;;;;;;;;;;;;;;;;4981989;28;1387;-71
2022/03/25 12:17:08;;;;;;;;;;;;;;;;;;4980248;28;1276;-72
2022/03/25 12:19:38;;;;;;;;;;;;;;;;;;4979915;28;1480;-70
2022/03/25 12:22:25;;;;;;;;;;;;;;;;;;4981785;28;1253;-70
2022/03/25 12:24:54;;;;;;;;;;;;;;;;;;4981794;28;1681;-69
2022/03/25 12:27:20;;;;;;;;;;;;;;;;;;4981732;28;1325;-70
2022/03/25 12:29:48;;;;;;;;;;;;;;;;;;4981385;28;1957;-70
2022/03/25 12:32:14;;;;;;;;;;;;;;;;;;4981706;28;1173;-70
2022/03/25 12:34:39;;;;;;;;;;;;;;;;;;4982780;28;1146;-71
2022/03/25 12:37:06;;;;;;;;;;;;;;;;;;4982451;28;1358;-71
2022/03/25 12:39:31;;;;;;;;;;;;;;;;;;4982041;28;1261;-71
2022/03/25 12:41:56;;;;;;;;;;;;;;;;;;4981618;28;1320;-69
2022/03/25 12:44:28;;;;;;;;;;;;;;;;;;4981908;28;1351;-71
2022/03/25 12:46:58;;;;;;;;;;;;;;;;;;4981346;28;1291;-69
2022/03/25 12:49:24;;;;;;;;;;;;;;;;;;4980664;28;1902;-70
2022/03/25 12:51:55;;;;;;;;;;;;;;;;;;4981998;28;1173;-69
2022/03/25 12:54:21;;;;;;;;;;;;;;;;;;4982199;28;1169;-70
2022/03/25 12:56:56;;;;;;;;;;;;;;;;;;4980939;28;1629;-69
2022/03/25 12:59:29;;;;;;;;;;;;;;;;;;4981274;28;1517;-69
2022/03/25 13:01:54;;;;;;;;;;;;;;;;;;4982005;28;1241;-69
2022/03/25 13:04:26;;;;;;;;;;;;;;;;;;4980497;28;1604;-72
2022/03/25 13:06:56;;;;;;;;;;;;;;;;;;4979827;28;1671;-69
2022/03/25 13:09:21;;;;;;;;;;;;;;;;;;4980761;28;2013;-70
2022/03/25 13:11:56;;;;;;;;;;;;;;;;;;4979269;28;1648;-68
2022/03/25 13:14:23;;;;;;;;;;;;;;;;;;4981188;28;1279;-68
2022/03/25 13:16:48;;;;;;;;;;;;;;;;;;4980796;28;1329;-68
2022/03/25 13:19:14;;;;;;;;;;;;;;;;;;4981643;28;1264;-67
2022/03/25 13:21:39;;;;;;;;;;;;;;;;;;4981129;28;1490;-69
2022/03/25 13:24:05;;;;;;;;;;;;;;;;;;4981559;28;1301;-68
2022/03/25 13:26:30;;;;;;;;;;;;;;;;;;4980643;28;1561;-69
2022/03/25 13:28:56;;;;;;;;;;;;;;;;;;4980668;28;1895;-68
2022/03/25 13:31:21;;;;;;;;;;;;;;;;;;4981560;28;1524;-70
2022/03/25 13:33:54;;;;;;;;;;;;;;;;;;4980112;28;1484;-68
2022/03/25 13:36:27;;;;;;;;;;;;;;;;;;4980594;28;1279;-70
2022/03/25 13:38:53;;;;;;;;;;;;;;;;;;4980098;28;1520;-69
2022/03/25 13:41:20;;;;;;;;;;;;;;;;;;4982235;28;1655;-70
2022/03/25 13:43:46;;;;;;;;;;;;;;;;;;4981996;28;1324;-70
2022/03/25 13:46:12;;;;;;;;;;;;;;;;;;4981146;28;1292;-69
2022/03/25 13:48:41;;;;;;;;;;;;;;;;;;4980739;28;1891;-69
2022/03/25 13:51:25;;;;;;;;;;;;;;;;;;4981624;28;1359;-69
2022/03/25 13:53:58;;;;;;;;;;;;;;;;;;4979077;28;1563;-68
2022/03/25 13:56:23;;;;;;;;;;;;;;;;;;4980149;28;1273;-70
2022/03/25 13:58:50;;;;;;;;;;;;;;;;;;4979789;28;1299;-69
2022/03/25 14:01:16;;;;;;;;;;;;;;;;;;4981287;28;1265;-69
2022/03/25 14:03:42;;;;;;;;;;;;;;;;;;4982001;28;1292;-69
2022/03/25 14:06:16;;;;;;;;;;;;;;;;;;4981174;28;1334;-69
2022/03/25 14:08:42;;;;;;;;;;;;;;;;;;4980426;28;1899;-69
2022/03/25 14:11:08;;;;;;;;;;;;;;;;;;4981424;28;1289;-69
2022/03/25 14:13:34;;;;;;;;;;;;;;;;;;4982003;28;1272;-70
2022/03/25 14:16:15;;;;;;;;;;;;;;;;;;4981041;28;1441;-71
2022/03/25 14:18:50;;;;;;;;;;;;;;;;;;4981115;28;1527;-68
2022/03/25 14:21:22;;;;;;;;;;;;;;;;;;4981544;28;1285;-69
2022/03/25 14:23:47;;;;;;;;;;;;;;;;;;4980847;28;1446;-70
2022/03/25 14:26:12;;;;;;;;;;;;;;;;;;4980639;28;1255;-69
2022/03/25 14:28:37;;;;;;;;;;;;;;;;;;4980956;28;1902;-69
2022/03/25 14:31:04;;;;;;;;;;;;;;;;;;4981100;28;1245;-68
2022/03/25 14:33:29;;;;;;;;;;;;;;;;;;4980994;28;1283;-72
2022/03/25 14:35:54;;;;;;;;;;;;;;;;;;4979796;28;1509;-70
2022/03/25 14:38:20;;;;;;;;;;;;;;;;;;4981701;28;1256;-67
2022/03/25 14:40:45;;;;;;;;;;;;;;;;;;4980773;28;1257;-68
2022/03/25 14:43:10;;;;;;;;;;;;;;;;;;4984956;28;1454;-68
2022/03/25 14:45:35;;;;;;;;;;;;;;;;;;4984150;28;1269;-69
2022/03/25 14:48:00;;;;;;;;;;;;;;;;;;4982804;28;1965;-68
2022/03/25 14:50:26;;;;;;;;;;;;;;;;;;4982140;28;1581;-67
2022/03/25 14:52:51;;;;;;;;;;;;;;;;;;4982020;28;1354;-67
2022/03/25 14:55:20;;;;;;;;;;;;;;;;;;4982404;28;1423;-67
2022/03/25 14:57:46;;;;;;;;;;;;;;;;;;4983604;28;1417;-68
2022/03/25 15:00:11;;;;;;;;;;;;;;;;;;4984390;28;1253;-67
2022/03/25 15:02:37;;;;;;;;;;;;;;;;;;4965625;28;1649;-68
2022/03/25 15:05:03;;;;;;;;;;;;;;;;;;4982593;28;1244;-67
2022/03/25 15:07:28;;;;;;;;;;;;;;;;;;4983299;28;1469;-67
2022/03/25 15:09:53;;;;;;;;;;;;;;;;;;4983369;28;1878;-67
2022/03/25 15:12:18;;;;;;;;;;;;;;;;;;4983299;28;1173;-67
2022/03/25 15:14:44;;;;;;;;;;;;;;;;;;4982777;28;1383;-67
2022/03/25 15:17:10;;;;;;;;;;;;;;;;;;4982245;28;1442;-67
2022/03/25 15:19:35;;;;;;;;;;;;;;;;;;4983571;28;1300;-68
2022/03/25 15:22:00;;;;;;;;;;;;;;;;;;4983476;28;1237;-67
2022/03/25 15:24:26;;;;;;;;;;;;;;;;;;4981214;28;1726;-67
2022/03/25 15:26:51;;;;;;;;;;;;;;;;;;4982605;28;1849;-67
2022/03/25 15:34:26;;;;;;;;;;;;;;;;;;4981120;28;1971;-67
2022/03/25 15:34:45;;;;;;;;;;;;;;;;;;4984153;28;1889;-67
2022/03/25 15:37:11;;;;;;;;;;;;;;;;;;4982396;28;1529;-66
2022/03/25 15:42:20;;;;;;;;;;;;;;;;;;4984192;28;1459;-66
2022/03/25 15:44:45;;;;;;;;;;;;;;;;;;4983917;28;1248;-67
2022/03/25 15:47:10;;;;;;;;;;;;;;;;;;4982849;28;1632;-67
2022/03/25 15:49:35;;;;;;;;;;;;;;;;;;4982443;28;1898;-66
2022/03/25 15:52:02;;;;;;;;;;;;;;;;;;4981816;28;1612;-67
2022/03/25 15:54:27;;;;;;;;;;;;;;;;;;4982423;28;1652;-67
2022/03/25 15:56:52;;;;;;;;;;;;;;;;;;4983548;28;1239;-66
2022/03/25 15:59:18;;;;;;;;;;;;;;;;;;4983156;28;1556;-66
2022/03/25 16:01:43;;;;;;;;;;;;;;;;;;4980408;28;1573;-67
2022/03/25 16:04:09;;;;;;;;;;;;;;;;;;4984023;28;1252;-67
2022/03/25 16:06:34;;;;;;;;;;;;;;;;;;4982477;28;1557;-68
2022/03/25 16:08:59;;;;;;;;;;;;;;;;;;4983989;28;1902;-68
2022/03/25 16:11:25;;;;;;;;;;;;;;;;;;4982823;28;1652;-67
2022/03/25 16:13:50;;;;;;;;;;;;;;;;;;4984082;28;1085;-67
2022/03/25 16:16:16;;;;;;;;;;;;;;;;;;4983280;28;1276;-66
2022/03/25 16:18:41;;;;;;;;;;;;;;;;;;4983976;28;1358;-68
2022/03/25 16:21:06;;;;;;;;;;;;;;;;;;4980769;28;1600;-68
2022/03/25 16:23:32;;;;;;;;;;;;;;;;;;4983486;28;1580;-67
2022/03/25 16:25:57;;;;;;;;;;;;;;;;;;4982009;28;1253;-68
2022/03/25 16:28:23;;;;;;;;;;;;;;;;;;4981319;28;1890;-66
2022/03/25 16:30:48;;;;;;;;;;;;;;;;;;4983459;28;1213;-67
2022/03/25 16:33:13;;;;;;;;;;;;;;;;;;4985731;28;1254;-69
2022/03/25 16:35:38;;;;;;;;;;;;;;;;;;4980546;28;1268;-67
2022/03/25 16:38:04;;;;;;;;;;;;;;;;;;4982723;28;1204;-68
2022/03/25 16:40:30;;;;;;;;;;;;;;;;;;4981161;28;1593;-68
2022/03/25 16:42:55;;;;;;;;;;;;;;;;;;4981127;28;1204;-68
2022/03/25 16:45:21;;;;;;;;;;;;;;;;;;4982164;28;1260;-68
2022/03/25 16:47:47;;;;;;;;;;;;;;;;;;4980499;28;1907;-68
2022/03/25 16:50:13;;;;;;;;;;;;;;;;;;4979899;28;1572;-68
2022/03/25 16:52:38;;;;;;;;;;;;;;;;;;4981243;28;1561;-68
2022/03/25 16:55:07;;;;;;;;;;;;;;;;;;4980638;28;1521;-68
2022/03/25 16:57:33;;;;;;;;;;;;;;;;;;4981339;28;1358;-68
2022/03/25 16:59:59;;;;;;;;;;;;;;;;;;4982373;28;1253;-68
2022/03/25 17:02:24;;;;;;;;;;;;;;;;;;4980776;28;1663;-67
2022/03/25 17:04:49;;;;;;;;;;;;;;;;;;4980017;28;1121;-67
2022/03/25 17:07:14;;;;;;;;;;;;;;;;;;4982094;28;1318;-67
2022/03/25 17:09:40;;;;;;;;;;;;;;;;;;4982089;28;1898;-67